This is the latest recevied weather packets stored in our database for station/object EA5JPW-10. If no packets are shown the sender has not sent any weather packets the latest 1 day(s).
| Time | Temp. | Humidity | Pressure | Rain* | Wind** | Luminosity | Snow |
|---|---|---|---|---|---|---|---|
| 1778278238 | 15.56° C | 48% | 992.1 hPa | - | - | - | - |
| 1778277280 | 16.67° C | 48% | 991.7 hPa | - | - | - | - |
| 1778277257 | 16.67° C | 47% | 991.7 hPa | - | - | - | - |
| 1778277226 | 16.67° C | 48% | 991.7 hPa | - | - | - | - |
| 1778277116 | 16.11° C | 48% | 990.7 hPa | - | - | - | - |
| 1778276216 | 15.56° C | 47% | 988.8 hPa | - | - | - | - |
| 1778275293 | 17.22° C | 48% | 992.1 hPa | - | - | - | - |
| 1778273310 | 17.22° C | 48% | 992.1 hPa | - | - | - | - |
| 1778272410 | 17.78° C | 48% | 992 hPa | - | - | - | - |
| 1778271510 | 17.22° C | 47% | 991.9 hPa | - | - | - | - |
| 1778266109 | 20° C | 46% | 991.3 hPa | - | - | - | - |
| 1778265209 | 21.11° C | 45% | 990.7 hPa | - | - | - | - |
| 1778258908 | 26.11° C | 40% | 985.1 hPa | - | - | - | - |
| 1778256210 | 32.78° C | 37% | 991.1 hPa | - | - | - | - |
| 1778250809 | 32.78° C | 37% | 989.5 hPa | - | - | - | - |
| 1778249909 | 33.33° C | 37% | 990.8 hPa | - | - | - | - |
| 1778244508 | 33.33° C | 40% | 992.7 hPa | - | - | - | - |
| 1778238207 | 27.78° C | 48% | 994 hPa | - | - | - | - |
| 1778237602 | 26.67° C | 46% | 995.5 hPa | - | - | - | - |
| 1778237307 | 26.67° C | 46% | 995.5 hPa | - | - | - | - |
| 1778236407 | 23.89° C | 46% | 994 hPa | - | - | - | - |
| 1778235438 | 19.44° C | 49% | 994.3 hPa | - | - | - | - |
| 1778235415 | 19.44° C | 49% | 994.3 hPa | - | - | - | - |
| 1778235392 | 19.44° C | 49% | 994.2 hPa | - | - | - | - |
| 1778235323 | 18.89° C | 49% | 994.2 hPa | - | - | - | - |
* Rain since midnight (hover to see other rain measurements)
** Current wind speed in m/s (hover to see current wind gust speed)